sensor_id;sensor_type;location;lat;lon;timestamp;temperature;humidity
65472;DHT22;52068;50.710;14.492;2023-07-22T00:01:59;23.47;52.87
65472;DHT22;52068;50.710;14.492;2023-07-22T00:04:25;23.54;52.70
65472;DHT22;52068;50.710;14.492;2023-07-22T00:06:51;23.58;52.47
65472;DHT22;52068;50.710;14.492;2023-07-22T00:09:17;23.66;52.29
65472;DHT22;52068;50.710;14.492;2023-07-22T00:11:42;23.69;52.20
65472;DHT22;52068;50.710;14.492;2023-07-22T00:14:08;23.75;52.03
65472;DHT22;52068;50.710;14.492;2023-07-22T00:16:34;23.78;51.94
65472;DHT22;52068;50.710;14.492;2023-07-22T00:19:00;23.82;51.94
65472;DHT22;52068;50.710;14.492;2023-07-22T00:21:25;23.85;51.85
65472;DHT22;52068;50.710;14.492;2023-07-22T00:23:51;23.89;51.75
65472;DHT22;52068;50.710;14.492;2023-07-22T00:26:16;23.89;51.73
65472;DHT22;52068;50.710;14.492;2023-07-22T00:28:41;23.95;51.54
65472;DHT22;52068;50.710;14.492;2023-07-22T00:31:08;23.95;51.49
65472;DHT22;52068;50.710;14.492;2023-07-22T00:33:34;23.98;51.35
65472;DHT22;52068;50.710;14.492;2023-07-22T00:35:59;23.98;51.22
65472;DHT22;52068;50.710;14.492;2023-07-22T00:38:24;24.02;51.15
65472;DHT22;52068;50.710;14.492;2023-07-22T00:40:50;24.01;51.15
65472;DHT22;52068;50.710;14.492;2023-07-22T00:43:15;24.01;51.09
65472;DHT22;52068;50.710;14.492;2023-07-22T00:45:41;24.05;51.02
65472;DHT22;52068;50.710;14.492;2023-07-22T00:48:07;24.03;51.01
65472;DHT22;52068;50.710;14.492;2023-07-22T00:50:33;24.08;50.84
65472;DHT22;52068;50.710;14.492;2023-07-22T00:52:58;24.05;50.72
65472;DHT22;52068;50.710;14.492;2023-07-22T00:55:25;24.08;50.61
65472;DHT22;52068;50.710;14.492;2023-07-22T00:57:50;24.06;50.48
65472;DHT22;52068;50.710;14.492;2023-07-22T01:00:15;24.08;50.47
65472;DHT22;52068;50.710;14.492;2023-07-22T01:02:41;24.08;50.40
65472;DHT22;52068;50.710;14.492;2023-07-22T01:05:09;24.12;50.46
65472;DHT22;52068;50.710;14.492;2023-07-22T01:07:35;24.09;50.48
65472;DHT22;52068;50.710;14.492;2023-07-22T01:10:01;24.10;50.48
65472;DHT22;52068;50.710;14.492;2023-07-22T01:12:26;24.08;50.51
65472;DHT22;52068;50.710;14.492;2023-07-22T01:14:52;24.12;50.50
65472;DHT22;52068;50.710;14.492;2023-07-22T01:17:18;24.10;50.43
65472;DHT22;52068;50.710;14.492;2023-07-22T01:19:44;24.12;50.36
65472;DHT22;52068;50.710;14.492;2023-07-22T01:22:10;24.13;50.39
65472;DHT22;52068;50.710;14.492;2023-07-22T01:24:36;24.15;50.35
65472;DHT22;52068;50.710;14.492;2023-07-22T01:27:03;24.16;50.34
65472;DHT22;52068;50.710;14.492;2023-07-22T01:29:29;24.15;50.27
65472;DHT22;52068;50.710;14.492;2023-07-22T01:31:55;24.15;50.17
65472;DHT22;52068;50.710;14.492;2023-07-22T01:34:21;24.15;50.12
65472;DHT22;52068;50.710;14.492;2023-07-22T01:36:48;24.15;50.12
65472;DHT22;52068;50.710;14.492;2023-07-22T01:39:17;24.15;50.10
65472;DHT22;52068;50.710;14.492;2023-07-22T01:41:43;24.15;50.22
65472;DHT22;52068;50.710;14.492;2023-07-22T01:44:09;24.15;50.34
65472;DHT22;52068;50.710;14.492;2023-07-22T01:46:36;24.15;50.35
65472;DHT22;52068;50.710;14.492;2023-07-22T01:49:03;24.13;50.34
65472;DHT22;52068;50.710;14.492;2023-07-22T01:51:28;24.15;50.25
65472;DHT22;52068;50.710;14.492;2023-07-22T01:53:54;24.16;50.06
65472;DHT22;52068;50.710;14.492;2023-07-22T01:56:22;24.16;50.09
65472;DHT22;52068;50.710;14.492;2023-07-22T01:58:47;24.17;50.11
65472;DHT22;52068;50.710;14.492;2023-07-22T02:01:12;24.15;49.87
65472;DHT22;52068;50.710;14.492;2023-07-22T02:03:42;24.13;49.72
65472;DHT22;52068;50.710;14.492;2023-07-22T02:06:07;24.15;49.72
65472;DHT22;52068;50.710;14.492;2023-07-22T02:08:33;24.13;49.69
65472;DHT22;52068;50.710;14.492;2023-07-22T02:11:08;24.12;49.82
65472;DHT22;52068;50.710;14.492;2023-07-22T02:13:36;24.15;49.81
65472;DHT22;52068;50.710;14.492;2023-07-22T02:16:02;24.12;49.83
65472;DHT22;52068;50.710;14.492;2023-07-22T02:18:28;24.10;49.76
65472;DHT22;52068;50.710;14.492;2023-07-22T02:20:54;24.10;49.71
65472;DHT22;52068;50.710;14.492;2023-07-22T02:23:20;24.10;49.67
65472;DHT22;52068;50.710;14.492;2023-07-22T02:25:53;24.10;49.66
65472;DHT22;52068;50.710;14.492;2023-07-22T02:28:19;24.09;49.58
65472;DHT22;52068;50.710;14.492;2023-07-22T02:30:49;24.10;49.50
65472;DHT22;52068;50.710;14.492;2023-07-22T02:33:15;24.10;49.43
65472;DHT22;52068;50.710;14.492;2023-07-22T02:35:41;24.08;49.44
65472;DHT22;52068;50.710;14.492;2023-07-22T02:38:07;24.08;49.42
65472;DHT22;52068;50.710;14.492;2023-07-22T02:40:36;24.08;49.42
65472;DHT22;52068;50.710;14.492;2023-07-22T02:43:02;24.08;49.35
65472;DHT22;52068;50.710;14.492;2023-07-22T02:45:28;24.08;49.34
65472;DHT22;52068;50.710;14.492;2023-07-22T02:47:53;24.08;49.29
65472;DHT22;52068;50.710;14.492;2023-07-22T02:50:19;24.08;49.21
65472;DHT22;52068;50.710;14.492;2023-07-22T02:52:44;24.06;49.24
65472;DHT22;52068;50.710;14.492;2023-07-22T02:55:16;24.06;49.17
65472;DHT22;52068;50.710;14.492;2023-07-22T02:57:45;24.06;49.15
65472;DHT22;52068;50.710;14.492;2023-07-22T03:00:12;24.06;49.01
65472;DHT22;52068;50.710;14.492;2023-07-22T03:02:39;24.06;48.99
65472;DHT22;52068;50.710;14.492;2023-07-22T03:05:05;24.05;48.91
65472;DHT22;52068;50.710;14.492;2023-07-22T03:07:42;24.03;49.10
65472;DHT22;52068;50.710;14.492;2023-07-22T03:10:08;24.05;49.01
65472;DHT22;52068;50.710;14.492;2023-07-22T03:12:34;24.03;49.05
65472;DHT22;52068;50.710;14.492;2023-07-22T03:14:59;24.05;49.07
65472;DHT22;52068;50.710;14.492;2023-07-22T03:17:25;24.03;49.15
65472;DHT22;52068;50.710;14.492;2023-07-22T03:19:51;24.03;49.15
65472;DHT22;52068;50.710;14.492;2023-07-22T03:22:16;24.05;49.17
65472;DHT22;52068;50.710;14.492;2023-07-22T03:24:42;24.03;49.16
65472;DHT22;52068;50.710;14.492;2023-07-22T03:27:08;24.03;49.13
65472;DHT22;52068;50.710;14.492;2023-07-22T03:29:33;24.01;49.07
65472;DHT22;52068;50.710;14.492;2023-07-22T03:31:59;24.02;49.03
65472;DHT22;52068;50.710;14.492;2023-07-22T03:34:26;24.02;48.98
65472;DHT22;52068;50.710;14.492;2023-07-22T03:36:52;24.01;48.99
65472;DHT22;52068;50.710;14.492;2023-07-22T03:39:17;24.02;49.02
65472;DHT22;52068;50.710;14.492;2023-07-22T03:41:42;24.03;48.99
65472;DHT22;52068;50.710;14.492;2023-07-22T03:44:08;24.03;48.97
65472;DHT22;52068;50.710;14.492;2023-07-22T03:46:33;24.03;48.98
65472;DHT22;52068;50.710;14.492;2023-07-22T03:48:58;24.03;48.95
65472;DHT22;52068;50.710;14.492;2023-07-22T03:51:24;24.02;48.90
65472;DHT22;52068;50.710;14.492;2023-07-22T03:53:49;24.02;48.95
65472;DHT22;52068;50.710;14.492;2023-07-22T03:56:14;24.01;48.98
65472;DHT22;52068;50.710;14.492;2023-07-22T03:58:40;24.02;48.99
65472;DHT22;52068;50.710;14.492;2023-07-22T04:01:05;24.05;48.76
65472;DHT22;52068;50.710;14.492;2023-07-22T04:03:30;24.02;48.73
65472;DHT22;52068;50.710;14.492;2023-07-22T04:05:56;24.03;48.68
65472;DHT22;52068;50.710;14.492;2023-07-22T04:08:22;24.02;48.64
65472;DHT22;52068;50.710;14.492;2023-07-22T04:10:54;24.06;48.62
65472;DHT22;52068;50.710;14.492;2023-07-22T04:13:20;24.02;48.75
65472;DHT22;52068;50.710;14.492;2023-07-22T04:15:46;24.06;48.72
65472;DHT22;52068;50.710;14.492;2023-07-22T04:18:12;24.05;48.73
65472;DHT22;52068;50.710;14.492;2023-07-22T04:20:37;24.09;48.64
65472;DHT22;52068;50.710;14.492;2023-07-22T04:23:02;24.08;48.59
65472;DHT22;52068;50.710;14.492;2023-07-22T04:25:28;24.05;48.53
65472;DHT22;52068;50.710;14.492;2023-07-22T04:27:53;24.08;48.39
65472;DHT22;52068;50.710;14.492;2023-07-22T04:30:18;24.06;48.43
65472;DHT22;52068;50.710;14.492;2023-07-22T04:32:48;24.08;48.41
65472;DHT22;52068;50.710;14.492;2023-07-22T04:35:17;24.06;48.49
65472;DHT22;52068;50.710;14.492;2023-07-22T04:37:45;24.02;48.58
65472;DHT22;52068;50.710;14.492;2023-07-22T04:40:11;24.02;48.55
65472;DHT22;52068;50.710;14.492;2023-07-22T04:42:42;24.05;48.64
65472;DHT22;52068;50.710;14.492;2023-07-22T04:45:08;24.02;48.81
65472;DHT22;52068;50.710;14.492;2023-07-22T04:47:37;24.05;48.81
65472;DHT22;52068;50.710;14.492;2023-07-22T04:50:07;24.05;48.62
65472;DHT22;52068;50.710;14.492;2023-07-22T04:52:36;24.05;48.70
65472;DHT22;52068;50.710;14.492;2023-07-22T04:55:02;24.06;48.62
65472;DHT22;52068;50.710;14.492;2023-07-22T04:57:40;24.09;48.80
65472;DHT22;52068;50.710;14.492;2023-07-22T05:00:07;24.06;48.86
65472;DHT22;52068;50.710;14.492;2023-07-22T05:02:35;24.09;48.84
65472;DHT22;52068;50.710;14.492;2023-07-22T05:05:00;24.10;48.72
65472;DHT22;52068;50.710;14.492;2023-07-22T05:07:26;24.09;48.75
65472;DHT22;52068;50.710;14.492;2023-07-22T05:09:52;24.10;48.84
65472;DHT22;52068;50.710;14.492;2023-07-22T05:12:17;24.09;48.75
65472;DHT22;52068;50.710;14.492;2023-07-22T05:14:45;24.10;48.76
65472;DHT22;52068;50.710;14.492;2023-07-22T05:17:10;24.09;48.76
65472;DHT22;52068;50.710;14.492;2023-07-22T05:19:35;24.10;48.67
65472;DHT22;52068;50.710;14.492;2023-07-22T05:22:01;24.12;48.73
65472;DHT22;52068;50.710;14.492;2023-07-22T05:24:26;24.12;48.75
65472;DHT22;52068;50.710;14.492;2023-07-22T05:26:52;24.10;48.83
65472;DHT22;52068;50.710;14.492;2023-07-22T05:29:17;24.12;49.14
65472;DHT22;52068;50.710;14.492;2023-07-22T05:31:42;24.13;49.25
65472;DHT22;52068;50.710;14.492;2023-07-22T05:34:08;24.16;49.33
65472;DHT22;52068;50.710;14.492;2023-07-22T05:36:33;24.15;49.14
65472;DHT22;52068;50.710;14.492;2023-07-22T05:38:59;24.16;49.22
65472;DHT22;52068;50.710;14.492;2023-07-22T05:41:25;24.17;49.33
65472;DHT22;52068;50.710;14.492;2023-07-22T05:43:51;24.17;49.32
65472;DHT22;52068;50.710;14.492;2023-07-22T05:46:16;24.17;49.50
65472;DHT22;52068;50.710;14.492;2023-07-22T05:48:41;24.17;49.55
65472;DHT22;52068;50.710;14.492;2023-07-22T05:51:07;24.19;49.57
65472;DHT22;52068;50.710;14.492;2023-07-22T05:53:32;24.19;49.57
65472;DHT22;52068;50.710;14.492;2023-07-22T05:55:58;24.23;49.43
65472;DHT22;52068;50.710;14.492;2023-07-22T05:58:23;24.22;49.30
65472;DHT22;52068;50.710;14.492;2023-07-22T06:00:49;24.23;49.51
65472;DHT22;52068;50.710;14.492;2023-07-22T06:03:16;24.23;49.20
65472;DHT22;52068;50.710;14.492;2023-07-22T06:05:42;24.24;49.41
65472;DHT22;52068;50.710;14.492;2023-07-22T06:08:07;24.27;49.44
65472;DHT22;52068;50.710;14.492;2023-07-22T06:10:33;24.30;49.44
65472;DHT22;52068;50.710;14.492;2023-07-22T06:12:58;24.34;49.38
65472;DHT22;52068;50.710;14.492;2023-07-22T06:15:24;24.34;49.04
65472;DHT22;52068;50.710;14.492;2023-07-22T06:17:49;24.39;48.92
65472;DHT22;52068;50.710;14.492;2023-07-22T06:20:14;24.40;48.93
65472;DHT22;52068;50.710;14.492;2023-07-22T06:22:40;24.43;48.99
65472;DHT22;52068;50.710;14.492;2023-07-22T06:25:05;24.46;49.10
65472;DHT22;52068;50.710;14.492;2023-07-22T06:27:31;24.46;49.00
65472;DHT22;52068;50.710;14.492;2023-07-22T06:29:57;24.49;48.64
65472;DHT22;52068;50.710;14.492;2023-07-22T06:32:23;24.47;48.42
65472;DHT22;52068;50.710;14.492;2023-07-22T06:34:48;24.47;48.25
65472;DHT22;52068;50.710;14.492;2023-07-22T06:37:14;24.49;48.33
65472;DHT22;52068;50.710;14.492;2023-07-22T06:39:39;24.46;48.35
65472;DHT22;52068;50.710;14.492;2023-07-22T06:42:05;24.49;48.29
65472;DHT22;52068;50.710;14.492;2023-07-22T06:44:30;24.49;48.23
65472;DHT22;52068;50.710;14.492;2023-07-22T06:46:55;24.50;48.20
65472;DHT22;52068;50.710;14.492;2023-07-22T06:49:21;24.53;48.09
65472;DHT22;52068;50.710;14.492;2023-07-22T06:51:47;24.53;47.66
65472;DHT22;52068;50.710;14.492;2023-07-22T06:54:12;24.52;47.58
65472;DHT22;52068;50.710;14.492;2023-07-22T06:56:38;24.53;47.64
65472;DHT22;52068;50.710;14.492;2023-07-22T06:59:03;24.54;47.69
65472;DHT22;52068;50.710;14.492;2023-07-22T07:01:28;24.53;47.78
65472;DHT22;52068;50.710;14.492;2023-07-22T07:03:54;24.53;47.03
65472;DHT22;52068;50.710;14.492;2023-07-22T07:06:19;24.53;47.06
65472;DHT22;52068;50.710;14.492;2023-07-22T07:08:44;24.50;47.03
65472;DHT22;52068;50.710;14.492;2023-07-22T07:11:10;24.52;47.20
65472;DHT22;52068;50.710;14.492;2023-07-22T07:13:35;24.50;47.39
65472;DHT22;52068;50.710;14.492;2023-07-22T07:16:27;24.52;47.61
65472;DHT22;52068;50.710;14.492;2023-07-22T07:18:53;24.50;47.52
65472;DHT22;52068;50.710;14.492;2023-07-22T07:21:20;24.53;47.49
65472;DHT22;52068;50.710;14.492;2023-07-22T07:23:46;24.52;47.25
65472;DHT22;52068;50.710;14.492;2023-07-22T07:26:11;24.53;47.05
65472;DHT22;52068;50.710;14.492;2023-07-22T07:28:37;24.49;47.51
65472;DHT22;52068;50.710;14.492;2023-07-22T07:31:02;24.52;47.80
65472;DHT22;52068;50.710;14.492;2023-07-22T07:33:28;24.52;47.43
65472;DHT22;52068;50.710;14.492;2023-07-22T07:35:53;24.53;47.24
65472;DHT22;52068;50.710;14.492;2023-07-22T07:38:19;24.52;47.18
65472;DHT22;52068;50.710;14.492;2023-07-22T07:40:44;24.52;47.38
65472;DHT22;52068;50.710;14.492;2023-07-22T07:43:09;24.54;47.38
65472;DHT22;52068;50.710;14.492;2023-07-22T07:45:38;24.54;47.50
65472;DHT22;52068;50.710;14.492;2023-07-22T07:48:05;24.54;47.65
65472;DHT22;52068;50.710;14.492;2023-07-22T07:50:31;24.56;47.42
65472;DHT22;52068;50.710;14.492;2023-07-22T07:52:57;24.57;47.45
65472;DHT22;52068;50.710;14.492;2023-07-22T07:55:22;24.60;47.37
65472;DHT22;52068;50.710;14.492;2023-07-22T07:57:48;24.60;46.96
65472;DHT22;52068;50.710;14.492;2023-07-22T08:00:13;24.61;47.32
65472;DHT22;52068;50.710;14.492;2023-07-22T08:02:39;24.61;47.60
65472;DHT22;52068;50.710;14.492;2023-07-22T08:05:04;24.67;47.66
65472;DHT22;52068;50.710;14.492;2023-07-22T08:07:30;24.68;47.72
65472;DHT22;52068;50.710;14.492;2023-07-22T08:09:56;24.70;47.73
65472;DHT22;52068;50.710;14.492;2023-07-22T08:12:22;24.73;47.59
65472;DHT22;52068;50.710;14.492;2023-07-22T08:14:48;24.75;47.59
65472;DHT22;52068;50.710;14.492;2023-07-22T08:17:13;24.74;47.29
65472;DHT22;52068;50.710;14.492;2023-07-22T08:19:39;24.77;47.36
65472;DHT22;52068;50.710;14.492;2023-07-22T08:22:04;24.77;47.30
65472;DHT22;52068;50.710;14.492;2023-07-22T08:24:29;24.80;47.21
65472;DHT22;52068;50.710;14.492;2023-07-22T08:26:55;24.81;47.03
65472;DHT22;52068;50.710;14.492;2023-07-22T08:29:20;24.83;46.94
65472;DHT22;52068;50.710;14.492;2023-07-22T08:31:46;24.85;46.85
65472;DHT22;52068;50.710;14.492;2023-07-22T08:34:11;24.85;46.74
65472;DHT22;52068;50.710;14.492;2023-07-22T08:36:36;24.85;46.60
65472;DHT22;52068;50.710;14.492;2023-07-22T08:39:02;24.85;46.34
65472;DHT22;52068;50.710;14.492;2023-07-22T08:41:29;24.87;46.12
65472;DHT22;52068;50.710;14.492;2023-07-22T08:43:58;24.88;45.93
65472;DHT22;52068;50.710;14.492;2023-07-22T08:46:28;24.90;46.03
65472;DHT22;52068;50.710;14.492;2023-07-22T08:48:54;24.90;45.85
65472;DHT22;52068;50.710;14.492;2023-07-22T08:51:21;24.90;45.63
65472;DHT22;52068;50.710;14.492;2023-07-22T08:53:49;24.87;45.68
65472;DHT22;52068;50.710;14.492;2023-07-22T08:56:16;24.90;45.49
65472;DHT22;52068;50.710;14.492;2023-07-22T08:58:41;24.90;45.42
65472;DHT22;52068;50.710;14.492;2023-07-22T09:01:08;24.91;45.43
65472;DHT22;52068;50.710;14.492;2023-07-22T09:03:33;24.94;45.32
65472;DHT22;52068;50.710;14.492;2023-07-22T09:05:59;24.92;45.17
65472;DHT22;52068;50.710;14.492;2023-07-22T09:08:24;24.94;45.21
65472;DHT22;52068;50.710;14.492;2023-07-22T09:10:50;24.94;45.11
65472;DHT22;52068;50.710;14.492;2023-07-22T09:13:18;24.96;44.87
65472;DHT22;52068;50.710;14.492;2023-07-22T09:15:45;24.96;44.69
65472;DHT22;52068;50.710;14.492;2023-07-22T09:18:12;24.95;44.72
65472;DHT22;52068;50.710;14.492;2023-07-22T09:20:40;24.98;44.58
65472;DHT22;52068;50.710;14.492;2023-07-22T09:23:05;24.98;44.46
65472;DHT22;52068;50.710;14.492;2023-07-22T09:25:31;24.96;44.29
65472;DHT22;52068;50.710;14.492;2023-07-22T09:28:00;24.98;44.23
65472;DHT22;52068;50.710;14.492;2023-07-22T09:30:36;24.96;44.37
65472;DHT22;52068;50.710;14.492;2023-07-22T09:33:03;24.98;44.67
65472;DHT22;52068;50.710;14.492;2023-07-22T09:35:52;24.99;44.65
65472;DHT22;52068;50.710;14.492;2023-07-22T09:38:24;24.99;44.44
65472;DHT22;52068;50.710;14.492;2023-07-22T09:40:49;24.99;44.26
65472;DHT22;52068;50.710;14.492;2023-07-22T09:43:15;24.96;44.22
65472;DHT22;52068;50.710;14.492;2023-07-22T09:45:40;25.01;44.43
65472;DHT22;52068;50.710;14.492;2023-07-22T09:48:08;25.03;44.39
65472;DHT22;52068;50.710;14.492;2023-07-22T09:50:36;25.03;44.59
65472;DHT22;52068;50.710;14.492;2023-07-22T09:53:01;25.04;44.62
65472;DHT22;52068;50.710;14.492;2023-07-22T09:55:29;25.05;44.39
65472;DHT22;52068;50.710;14.492;2023-07-22T09:57:57;25.07;44.55
65472;DHT22;52068;50.710;14.492;2023-07-22T10:00:24;25.08;44.34
65472;DHT22;52068;50.710;14.492;2023-07-22T10:02:51;25.10;43.95
65472;DHT22;52068;50.710;14.492;2023-07-22T10:05:18;25.07;43.71
65472;DHT22;52068;50.710;14.492;2023-07-22T10:07:50;25.07;44.04
65472;DHT22;52068;50.710;14.492;2023-07-22T10:10:26;25.08;43.44
65472;DHT22;52068;50.710;14.492;2023-07-22T10:12:54;25.10;43.56
65472;DHT22;52068;50.710;14.492;2023-07-22T10:15:22;25.10;43.35
65472;DHT22;52068;50.710;14.492;2023-07-22T10:17:49;25.11;43.68
65472;DHT22;52068;50.710;14.492;2023-07-22T10:20:16;25.10;43.67
65472;DHT22;52068;50.710;14.492;2023-07-22T10:22:45;25.12;43.77
65472;DHT22;52068;50.710;14.492;2023-07-22T10:25:14;25.14;43.62
65472;DHT22;52068;50.710;14.492;2023-07-22T10:27:40;25.15;43.02
65472;DHT22;52068;50.710;14.492;2023-07-22T10:30:10;25.15;42.69
65472;DHT22;52068;50.710;14.492;2023-07-22T10:35:10;25.16;42.95
65472;DHT22;52068;50.710;14.492;2023-07-22T10:37:37;25.19;42.72
65472;DHT22;52068;50.710;14.492;2023-07-22T10:42:59;25.22;42.63
65472;DHT22;52068;50.710;14.492;2023-07-22T10:45:27;25.21;42.86
65472;DHT22;52068;50.710;14.492;2023-07-22T10:50:51;25.22;43.04
65472;DHT22;52068;50.710;14.492;2023-07-22T11:04:07;25.24;43.13
65472;DHT22;52068;50.710;14.492;2023-07-22T11:06:34;25.24;43.20
65472;DHT22;52068;50.710;14.492;2023-07-22T11:08:59;25.24;43.23
65472;DHT22;52068;50.710;14.492;2023-07-22T11:11:44;25.24;43.23
65472;DHT22;52068;50.710;14.492;2023-07-22T11:14:23;25.26;43.23
65472;DHT22;52068;50.710;14.492;2023-07-22T11:16:49;25.25;43.22
65472;DHT22;52068;50.710;14.492;2023-07-22T11:19:19;25.26;42.83
65472;DHT22;52068;50.710;14.492;2023-07-22T11:21:46;25.28;42.75
65472;DHT22;52068;50.710;14.492;2023-07-22T11:24:12;25.29;42.39
65472;DHT22;52068;50.710;14.492;2023-07-22T11:26:39;25.29;42.56
65472;DHT22;52068;50.710;14.492;2023-07-22T11:29:06;25.31;42.76
65472;DHT22;52068;50.710;14.492;2023-07-22T11:31:36;25.31;42.52
65472;DHT22;52068;50.710;14.492;2023-07-22T11:34:05;25.32;42.29
65472;DHT22;52068;50.710;14.492;2023-07-22T11:36:31;25.34;42.05
65472;DHT22;52068;50.710;14.492;2023-07-22T11:39:07;25.35;41.60
65472;DHT22;52068;50.710;14.492;2023-07-22T11:41:33;25.36;41.27
65472;DHT22;52068;50.710;14.492;2023-07-22T11:44:00;25.36;41.58
65472;DHT22;52068;50.710;14.492;2023-07-22T11:46:27;25.36;41.36
65472;DHT22;52068;50.710;14.492;2023-07-22T11:48:54;25.39;41.38
65472;DHT22;52068;50.710;14.492;2023-07-22T11:51:21;25.43;41.47
65472;DHT22;52068;50.710;14.492;2023-07-22T11:53:48;25.46;42.24
65472;DHT22;52068;50.710;14.492;2023-07-22T11:56:21;25.49;42.39
65472;DHT22;52068;50.710;14.492;2023-07-22T11:58:54;25.52;42.60
65472;DHT22;52068;50.710;14.492;2023-07-22T12:01:20;25.56;42.73
65472;DHT22;52068;50.710;14.492;2023-07-22T12:03:46;25.55;42.85
65472;DHT22;52068;50.710;14.492;2023-07-22T12:06:12;25.53;42.23
65472;DHT22;52068;50.710;14.492;2023-07-22T12:08:46;25.59;42.64
65472;DHT22;52068;50.710;14.492;2023-07-22T12:11:22;25.61;42.40
65472;DHT22;52068;50.710;14.492;2023-07-22T12:14:07;25.63;42.62
65472;DHT22;52068;50.710;14.492;2023-07-22T12:16:35;25.63;43.16
65472;DHT22;52068;50.710;14.492;2023-07-22T12:19:01;25.65;43.39
65472;DHT22;52068;50.710;14.492;2023-07-22T12:21:27;25.69;43.34
65472;DHT22;52068;50.710;14.492;2023-07-22T12:23:53;25.70;42.83
65472;DHT22;52068;50.710;14.492;2023-07-22T12:26:18;25.73;43.15
65472;DHT22;52068;50.710;14.492;2023-07-22T12:28:43;25.73;43.43
65472;DHT22;52068;50.710;14.492;2023-07-22T12:31:09;25.76;43.69
65472;DHT22;52068;50.710;14.492;2023-07-22T12:33:34;25.80;43.86
65472;DHT22;52068;50.710;14.492;2023-07-22T12:36:00;25.80;43.88
65472;DHT22;52068;50.710;14.492;2023-07-22T12:38:25;25.83;43.87
65472;DHT22;52068;50.710;14.492;2023-07-22T12:40:51;25.83;43.77
65472;DHT22;52068;50.710;14.492;2023-07-22T12:43:16;25.80;43.55
65472;DHT22;52068;50.710;14.492;2023-07-22T12:45:41;25.83;43.69
65472;DHT22;52068;50.710;14.492;2023-07-22T12:48:07;25.80;42.73
65472;DHT22;52068;50.710;14.492;2023-07-22T12:50:32;25.80;42.61
65472;DHT22;52068;50.710;14.492;2023-07-22T12:53:00;25.77;42.70
65472;DHT22;52068;50.710;14.492;2023-07-22T12:55:26;25.76;42.43
65472;DHT22;52068;50.710;14.492;2023-07-22T12:57:53;25.72;42.34
65472;DHT22;52068;50.710;14.492;2023-07-22T13:00:18;25.73;42.42
65472;DHT22;52068;50.710;14.492;2023-07-22T13:02:43;25.69;42.53
65472;DHT22;52068;50.710;14.492;2023-07-22T13:05:09;25.69;42.07
65472;DHT22;52068;50.710;14.492;2023-07-22T13:07:35;25.67;41.83
65472;DHT22;52068;50.710;14.492;2023-07-22T13:10:00;25.63;42.33
65472;DHT22;52068;50.710;14.492;2023-07-22T13:12:28;25.65;42.14
65472;DHT22;52068;50.710;14.492;2023-07-22T13:14:53;25.65;42.04
65472;DHT22;52068;50.710;14.492;2023-07-22T13:17:19;25.65;42.08
65472;DHT22;52068;50.710;14.492;2023-07-22T13:19:45;25.62;42.15
65472;DHT22;52068;50.710;14.492;2023-07-22T13:22:10;25.63;42.13
65472;DHT22;52068;50.710;14.492;2023-07-22T13:24:35;25.65;42.07
65472;DHT22;52068;50.710;14.492;2023-07-22T13:27:01;25.65;42.01
65472;DHT22;52068;50.710;14.492;2023-07-22T13:29:26;25.66;41.93
65472;DHT22;52068;50.710;14.492;2023-07-22T13:31:53;25.66;41.93
65472;DHT22;52068;50.710;14.492;2023-07-22T13:34:18;25.66;41.87
65472;DHT22;52068;50.710;14.492;2023-07-22T13:36:43;25.66;41.82
65472;DHT22;52068;50.710;14.492;2023-07-22T13:39:09;25.70;41.70
65472;DHT22;52068;50.710;14.492;2023-07-22T13:41:34;25.69;41.72
65472;DHT22;52068;50.710;14.492;2023-07-22T13:43:59;25.69;41.79
65472;DHT22;52068;50.710;14.492;2023-07-22T13:46:25;25.69;41.72
65472;DHT22;52068;50.710;14.492;2023-07-22T13:48:50;25.69;40.45
65472;DHT22;52068;50.710;14.492;2023-07-22T13:51:16;25.69;40.04
65472;DHT22;52068;50.710;14.492;2023-07-22T13:53:41;25.70;41.00
65472;DHT22;52068;50.710;14.492;2023-07-22T13:56:06;25.72;41.12
65472;DHT22;52068;50.710;14.492;2023-07-22T13:58:32;25.70;41.16
65472;DHT22;52068;50.710;14.492;2023-07-22T14:00:57;25.72;41.20
65472;DHT22;52068;50.710;14.492;2023-07-22T14:03:23;25.75;41.26
65472;DHT22;52068;50.710;14.492;2023-07-22T14:05:48;25.73;41.30
65472;DHT22;52068;50.710;14.492;2023-07-22T14:08:13;25.72;41.30
65472;DHT22;52068;50.710;14.492;2023-07-22T14:10:39;25.70;41.34
65472;DHT22;52068;50.710;14.492;2023-07-22T14:13:04;25.72;41.46
65472;DHT22;52068;50.710;14.492;2023-07-22T14:15:30;25.76;39.32
65472;DHT22;52068;50.710;14.492;2023-07-22T14:17:55;25.75;39.79
65472;DHT22;52068;50.710;14.492;2023-07-22T14:20:20;25.76;40.38
65472;DHT22;52068;50.710;14.492;2023-07-22T14:22:46;25.76;40.80
65472;DHT22;52068;50.710;14.492;2023-07-22T14:25:15;25.77;41.04
65472;DHT22;52068;50.710;14.492;2023-07-22T14:27:41;25.77;41.15
65472;DHT22;52068;50.710;14.492;2023-07-22T14:30:07;25.79;41.22
65472;DHT22;52068;50.710;14.492;2023-07-22T14:32:33;25.77;41.31
65472;DHT22;52068;50.710;14.492;2023-07-22T14:34:59;25.80;40.76
65472;DHT22;52068;50.710;14.492;2023-07-22T14:37:24;25.83;40.87
65472;DHT22;52068;50.710;14.492;2023-07-22T14:39:49;25.82;40.71
65472;DHT22;52068;50.710;14.492;2023-07-22T14:42:15;25.84;41.02
65472;DHT22;52068;50.710;14.492;2023-07-22T14:44:40;25.83;39.75
65472;DHT22;52068;50.710;14.492;2023-07-22T14:47:06;25.83;39.50
65472;DHT22;52068;50.710;14.492;2023-07-22T14:49:31;25.82;40.53
65472;DHT22;52068;50.710;14.492;2023-07-22T14:51:57;25.82;40.69
65472;DHT22;52068;50.710;14.492;2023-07-22T14:54:22;25.80;40.90
65472;DHT22;52068;50.710;14.492;2023-07-22T14:56:48;25.77;41.07
65472;DHT22;52068;50.710;14.492;2023-07-22T14:59:14;25.79;41.20
65472;DHT22;52068;50.710;14.492;2023-07-22T15:01:40;25.79;41.14
65472;DHT22;52068;50.710;14.492;2023-07-22T15:04:06;25.79;41.09
65472;DHT22;52068;50.710;14.492;2023-07-22T15:06:32;25.79;41.15
65472;DHT22;52068;50.710;14.492;2023-07-22T15:08:57;25.77;40.95
65472;DHT22;52068;50.710;14.492;2023-07-22T15:11:23;25.80;41.01
65472;DHT22;52068;50.710;14.492;2023-07-22T15:13:48;25.79;41.11
65472;DHT22;52068;50.710;14.492;2023-07-22T15:16:14;25.80;40.96
65472;DHT22;52068;50.710;14.492;2023-07-22T15:18:40;25.82;41.04
65472;DHT22;52068;50.710;14.492;2023-07-22T15:21:06;25.83;40.89
65472;DHT22;52068;50.710;14.492;2023-07-22T15:23:31;25.84;40.96
65472;DHT22;52068;50.710;14.492;2023-07-22T15:25:57;25.83;40.78
65472;DHT22;52068;50.710;14.492;2023-07-22T15:28:23;25.86;40.82
65472;DHT22;52068;50.710;14.492;2023-07-22T15:30:49;25.83;40.76